Airfield :
LOGIN :

Register | Disclaimer

   EN    FR    IT 

 










Legend :    VFR   Marginal VFR   IFR   Intensive IFR   Very Intensive IFR
Visi :
Ceiling :
>= 8 km
>= 3000ft
5 to 8 km
1000 to 3000 ft
1500m to 5 km
500 to 1000 ft
800 to 1500m
200 to 500 ft
< 800m
< 200 ft
Symbols :   Thunderstorms  Fog  Heavy snow  Heavy precipitations  Wind > 20 kt
SIGMETs :     Misc.  Thunderstorms  Icing  Turbulence  Mountain Waves  Volcanic Ashes






- Airport Elevation : 194 ft
- IATA code : LME


LFRM - Le Mans

CURRENT METAR :
  • 200500Z AUTO 19006KT 150V210 9999 FEW035 OVC042 09/07 Q1020

EXPIRED METARs :
  • 200430Z AUTO 19007KT 9999 OVC041 09/07 Q1020
  • 200400Z AUTO 20007KT 170V250 9999 OVC042 09/07 Q1021
  • 200330Z AUTO 20008KT 170V230 9999 OVC042 09/07 Q1021
  • 200300Z AUTO 20006KT 160V240 9999 FEW015 OVC041 09/07 Q1021
  • 200230Z AUTO 20006KT 160V220 9999 FEW023 OVC041 09/07 Q1022

TAF TAF LFRM
Valid from the 19 at 12:00 until the 20 at 12:00 UTC


191100Z 1912/2012 25010KT 9999 BKN020
PROB30
TEMPO 1912/1918 4500 -SHRA BKN020TCU
BECMG 2004/2006 19010KT
TEMPO 1923/2008 4500 -RA BKN014
BECMG 2010/2012 21015G25KT



MET'MAP, your aeronautical weather chart ! - Copyright ORBIFLY December 2007 - Disclaimer

ORBIFLY MET'MAP TEAM :

Programming & Development : Alexandra Zaïnal
Concept & original design : Baudouin d'Aumeries
Assistance for programming : Marc-Olivier Méhu
Technical & hardware support : Manuel Goepfert

Contact : metmap@orbifly.com




SOURCES & CREDITS :

   NOAA